Time;durP1;ratioP1;P1;durP2;ratioP2;P2;SDS_P1;SDS_P2;PMS_P1;PMS_P2;Temp;Humidity;BMP_temperature;BMP_pressure;BME280_temperature;BME280_humidity;BME280_pressure;Samples;Min_cycle;Max_cycle;Signal;HPM_P1;HPM_P2
2022/02/14 00:01:14;;;;;;;9.55;4.00;;;8.90;99.90;;;;;;6214707;23;20099;-85
2022/02/14 00:03:40;;;;;;;10.05;4.07;;;8.90;99.90;;;;;;6215685;23;20122;-86
2022/02/14 00:06:06;;;;;;;13.15;4.78;;;9.00;99.90;;;;;;6216197;23;20008;-85
2022/02/14 00:08:31;;;;;;;13.57;4.10;;;9.40;99.90;;;;;;6241605;23;20083;-84
2022/02/14 00:10:57;;;;;;;16.45;4.63;;;9.00;99.90;;;;;;6191618;23;20016;-84
2022/02/14 00:13:22;;;;;;;13.77;4.28;;;9.00;99.90;;;;;;6190885;23;20653;-85
2022/02/14 00:15:51;;;;;;;12.95;4.28;;;9.10;99.90;;;;;;6191147;23;20075;-84
2022/02/14 00:18:18;;;;;;;10.80;3.45;;;9.10;99.90;;;;;;6242103;23;20023;-83
2022/02/14 00:20:43;;;;;;;8.00;4.15;;;9.10;99.90;;;;;;6190235;23;20012;-83
2022/02/14 00:23:09;;;;;;;10.45;3.85;;;9.20;99.90;;;;;;6213197;23;20016;-82
2022/02/14 00:25:35;;;;;;;10.68;4.03;;;9.20;99.90;;;;;;6191033;23;20083;-85
2022/02/14 00:28:00;;;;;;;11.23;3.92;;;9.20;99.90;;;;;;6214954;23;20051;-82
2022/02/14 00:30:26;;;;;;;18.27;4.22;;;9.20;99.90;;;;;;6213261;23;20012;-84
2022/02/14 00:32:52;;;;;;;11.52;4.60;;;9.30;99.90;;;;;;6215845;23;20023;-83
2022/02/14 00:35:18;;;;;;;15.65;4.57;;;9.30;99.90;;;;;;6192197;23;20020;-85
2022/02/14 00:37:44;;;;;;;7.30;3.90;;;9.40;99.90;;;;;;6244049;23;20043;-84
2022/02/14 00:40:10;;;;;;;13.70;3.88;;;9.30;99.90;;;;;;6192736;23;20066;-86
2022/02/14 00:42:36;;;;;;;9.38;3.58;;;9.30;99.90;;;;;;6191498;23;20472;-85
2022/02/14 00:45:02;;;;;;;11.10;3.90;;;9.30;99.90;;;;;;6214353;23;20044;-83
2022/02/14 00:47:28;;;;;;;10.68;4.10;;;9.30;99.90;;;;;;6191191;23;20095;-85
2022/02/14 00:49:57;;;;;;;10.75;3.83;;;9.70;99.90;;;;;;6191026;23;20462;-84
2022/02/14 00:52:26;;;;;;;12.00;4.28;;;9.40;99.90;;;;;;6216336;23;20100;-84
2022/02/14 00:54:57;;;;;;;7.53;3.20;;;9.40;99.90;;;;;;6213388;23;20063;-85
2022/02/14 00:57:25;;;;;;;11.68;3.67;;;9.50;99.90;;;;;;6190516;23;20428;-84
2022/02/14 00:59:51;;;;;;;11.82;4.50;;;9.80;99.90;;;;;;6214757;23;20012;-84
2022/02/14 01:02:17;;;;;;;11.63;4.30;;;9.50;99.90;;;;;;6215437;23;20419;-83
2022/02/14 01:04:43;;;;;;;12.18;4.20;;;9.40;99.90;;;;;;6214479;23;20012;-83
2022/02/14 01:07:09;;;;;;;12.25;4.05;;;9.40;99.90;;;;;;6214392;23;20008;-85
2022/02/14 01:09:35;;;;;;;8.75;3.60;;;9.50;99.90;;;;;;6214028;23;20086;-84
2022/02/14 01:12:01;;;;;;;9.80;3.83;;;9.50;99.90;;;;;;6216697;23;20016;-85
2022/02/14 01:14:26;;;;;;;10.15;3.58;;;9.40;99.90;;;;;;6214793;23;20269;-84
2022/02/14 01:16:56;;;;;;;15.88;4.13;;;9.50;99.90;;;;;;6214649;23;20177;-83
2022/02/14 01:19:22;;;;;;;10.82;3.60;;;9.50;99.90;;;;;;6190078;23;20020;-84
2022/02/14 01:21:48;;;;;;;10.10;3.80;;;9.40;99.90;;;;;;6214852;23;20016;-84
2022/02/14 01:24:13;;;;;;;11.55;4.07;;;9.50;99.90;;;;;;6240496;23;20008;-84
2022/02/14 01:26:42;;;;;;;11.68;4.05;;;9.50;99.90;;;;;;6215381;23;20067;-84
2022/02/14 01:29:09;;;;;;;11.23;3.72;;;9.60;99.90;;;;;;6215144;23;20016;-83
2022/02/14 01:31:35;;;;;;;14.80;3.97;;;10.00;99.90;;;;;;6242247;23;20016;-84
2022/02/14 01:34:01;;;;;;;11.85;3.80;;;9.40;99.90;;;;;;6215386;23;20027;-83
2022/02/14 01:36:27;;;;;;;10.38;3.67;;;9.40;99.90;;;;;;6215861;23;20502;-83
2022/02/14 01:38:53;;;;;;;11.02;3.88;;;9.40;99.90;;;;;;6242409;23;20016;-85
2022/02/14 01:41:18;;;;;;;12.80;3.92;;;9.30;99.90;;;;;;6214651;23;20009;-84
2022/02/14 01:43:45;;;;;;;10.75;4.10;;;9.30;99.90;;;;;;6190400;23;20058;-83
2022/02/14 01:46:11;;;;;;;7.40;3.40;;;9.30;99.90;;;;;;6215827;23;20055;-85
2022/02/14 01:48:37;;;;;;;12.18;3.65;;;9.60;99.90;;;;;;6190094;23;20016;-85
2022/02/14 01:51:06;;;;;;;8.25;3.80;;;9.70;99.90;;;;;;6215788;23;20467;-86
2022/02/14 01:53:31;;;;;;;11.52;3.95;;;9.20;99.90;;;;;;6189628;23;20027;-86
2022/02/14 01:55:57;;;;;;;8.73;3.35;;;9.30;99.90;;;;;;6190988;23;20313;-84
2022/02/14 01:58:23;;;;;;;13.75;4.00;;;9.10;99.90;;;;;;6215956;23;20024;-83
2022/02/14 02:00:48;;;;;;;11.82;3.50;;;9.20;99.90;;;;;;6243130;23;20016;-85
2022/02/14 02:03:15;;;;;;;14.75;3.90;;;9.10;99.90;;;;;;6215743;23;20099;-85
2022/02/14 02:05:44;;;;;;;12.20;3.17;;;9.10;99.90;;;;;;6243078;23;20012;-84
2022/02/14 02:08:09;;;;;;;7.47;4.05;;;9.60;99.90;;;;;;6190687;23;20027;-84
2022/02/14 02:10:37;;;;;;;12.68;3.60;;;9.40;99.90;;;;;;6216803;23;20016;-85
2022/02/14 02:13:02;;;;;;;10.63;4.00;;;9.00;99.90;;;;;;6192655;23;20016;-85
2022/02/14 02:15:28;;;;;;;11.52;3.97;;;9.40;99.90;;;;;;6187231;23;20019;-84
2022/02/14 02:17:54;;;;;;;10.90;3.65;;;9.00;99.90;;;;;;6186188;23;20338;-83
2022/02/14 02:20:20;;;;;;;14.10;4.20;;;9.00;99.90;;;;;;6185829;23;20044;-85
2022/02/14 02:22:49;;;;;;;12.10;3.83;;;9.30;99.90;;;;;;6211783;23;20078;-84
2022/02/14 02:25:16;;;;;;;9.55;3.25;;;9.60;99.90;;;;;;6210648;23;20068;-85
2022/02/14 02:27:42;;;;;;;8.13;3.25;;;9.10;99.90;;;;;;6211162;23;20016;-84
2022/02/14 02:30:10;;;;;;;11.57;3.80;;;9.40;99.90;;;;;;6185622;23;20405;-85
2022/02/14 02:32:36;;;;;;;17.05;4.00;;;9.10;99.90;;;;;;6210503;23;20020;-84
2022/02/14 02:35:04;;;;;;;9.80;4.00;;;9.60;99.90;;;;;;6185757;23;20055;-86
2022/02/14 02:37:30;;;;;;;11.95;3.63;;;9.20;99.90;;;;;;6212846;23;20013;-84
2022/02/14 02:39:56;;;;;;;9.25;3.72;;;9.60;99.90;;;;;;6184914;23;20454;-86
2022/02/14 02:42:22;;;;;;;10.88;3.75;;;9.10;99.90;;;;;;6210594;23;20116;-85
2022/02/14 02:44:49;;;;;;;10.00;3.90;;;9.20;99.90;;;;;;6185424;23;20090;-85
2022/02/14 02:47:17;;;;;;;9.65;3.63;;;9.20;99.90;;;;;;6213126;23;20012;-83
2022/02/14 02:49:44;;;;;;;9.15;3.55;;;9.40;99.90;;;;;;6212537;23;20044;-84
2022/02/14 02:52:12;;;;;;;15.77;4.00;;;9.20;99.90;;;;;;6187288;23;20510;-83
2022/02/14 02:54:37;;;;;;;15.77;4.10;;;9.20;99.90;;;;;;6185735;23;20357;-83
2022/02/14 02:57:04;;;;;;;8.70;3.90;;;9.30;99.90;;;;;;6212433;23;20120;-85
2022/02/14 02:59:35;;;;;;;11.57;3.35;;;9.20;99.90;;;;;;6212072;23;20052;-84
2022/02/14 03:02:03;;;;;;;8.00;3.22;;;9.40;99.90;;;;;;6187238;23;20039;-84
2022/02/14 03:04:28;;;;;;;16.20;3.70;;;9.20;99.90;;;;;;6212565;23;20067;-84
2022/02/14 03:06:55;;;;;;;8.98;3.72;;;9.20;99.90;;;;;;6214063;23;20024;-85
2022/02/14 03:09:21;;;;;;;8.95;3.22;;;9.10;99.90;;;;;;6211750;23;20329;-85
2022/02/14 03:11:46;;;;;;;8.75;3.38;;;9.10;99.90;;;;;;6214603;23;20083;-83
2022/02/14 03:14:14;;;;;;;10.27;3.30;;;9.20;99.90;;;;;;6212338;23;20016;-85
2022/02/14 03:16:40;;;;;;;12.05;3.80;;;9.20;99.90;;;;;;6214526;23;20070;-83
2022/02/14 03:19:06;;;;;;;13.13;3.35;;;9.70;99.90;;;;;;6213031;23;20017;-85
2022/02/14 03:21:33;;;;;;;14.23;3.80;;;9.20;99.90;;;;;;6213332;23;20005;-84
2022/02/14 03:24:00;;;;;;;8.35;3.55;;;9.80;99.90;;;;;;6186511;23;20043;-85
2022/02/14 03:26:26;;;;;;;11.18;3.72;;;9.30;99.90;;;;;;6214743;23;20043;-84
2022/02/14 03:28:54;;;;;;;9.55;3.03;;;9.60;99.90;;;;;;6212455;23;20012;-85
2022/02/14 03:31:20;;;;;;;13.40;3.53;;;9.10;99.90;;;;;;6214601;23;20013;-84
2022/02/14 03:33:46;;;;;;;10.02;3.30;;;9.00;99.90;;;;;;6188036;23;20087;-85
2022/02/14 03:36:14;;;;;;;10.25;3.28;;;9.80;99.90;;;;;;6212260;23;20098;-85
2022/02/14 03:38:40;;;;;;;11.13;3.15;;;9.80;99.90;;;;;;6211856;23;20023;-86
2022/02/14 03:41:07;;;;;;;9.38;3.38;;;9.00;99.90;;;;;;6187812;23;20094;-85
2022/02/14 03:43:32;;;;;;;10.27;3.28;;;8.50;99.90;;;;;;6212711;23;20429;-87
2022/02/14 03:45:58;;;;;;;10.10;3.03;;;9.00;99.90;;;;;;6212611;23;20070;-85
2022/02/14 03:48:25;;;;;;;9.02;2.85;;;8.80;99.90;;;;;;6211901;23;20405;-86
2022/02/14 03:50:52;;;;;;;10.35;3.40;;;8.80;99.90;;;;;;6211911;23;20066;-83
2022/02/14 03:53:18;;;;;;;8.02;2.83;;;9.00;99.90;;;;;;6213093;23;20013;-85
2022/02/14 03:55:44;;;;;;;9.10;3.25;;;9.30;99.90;;;;;;6212886;23;20333;-83
2022/02/14 03:58:10;;;;;;;10.82;3.00;;;9.40;99.90;;;;;;6214137;23;20020;-84
2022/02/14 04:00:36;;;;;;;11.07;3.22;;;9.20;99.90;;;;;;6213828;23;20017;-85
2022/02/14 04:03:02;;;;;;;6.43;2.83;;;8.80;99.90;;;;;;6213693;23;20013;-83
2022/02/14 04:05:27;;;;;;;9.27;2.90;;;8.70;99.90;;;;;;6188313;23;20048;-84
2022/02/14 04:07:58;;;;;;;9.10;3.50;;;8.70;99.90;;;;;;6213511;23;20417;-84
2022/02/14 04:10:28;;;;;;;11.10;3.40;;;8.70;99.90;;;;;;6212677;23;20009;-86
2022/02/14 04:12:55;;;;;;;8.15;3.10;;;8.80;99.90;;;;;;6186594;23;20085;-86
2022/02/14 04:15:21;;;;;;;10.25;2.85;;;9.30;99.90;;;;;;6238103;23;20016;-86
2022/02/14 04:17:47;;;;;;;11.55;3.17;;;9.30;99.90;;;;;;6191999;23;20024;-84
2022/02/14 04:20:14;;;;;;;9.88;2.85;;;8.90;99.90;;;;;;6191763;23;20018;-85
2022/02/14 04:22:40;;;;;;;8.38;2.80;;;9.40;99.90;;;;;;6244082;23;20096;-84
2022/02/14 04:25:11;;;;;;;7.07;3.08;;;8.60;99.90;;;;;;6243060;23;20004;-83
2022/02/14 04:27:37;;;;;;;9.73;3.10;;;9.70;99.90;;;;;;6243877;23;20015;-85
2022/02/14 04:30:04;;;;;;;8.90;3.20;;;9.50;99.90;;;;;;6216934;23;20316;-86
2022/02/14 04:32:30;;;;;;;10.52;2.40;;;8.90;99.90;;;;;;6191988;23;20008;-85
2022/02/14 04:34:56;;;;;;;7.70;2.95;;;9.00;99.90;;;;;;6191682;23;20014;-85
2022/02/14 04:37:21;;;;;;;10.43;3.22;;;9.00;99.90;;;;;;6217132;23;20092;-87
2022/02/14 04:39:47;;;;;;;12.88;3.42;;;9.10;99.90;;;;;;6216538;23;20047;-86
2022/02/14 04:42:12;;;;;;;11.68;2.90;;;9.00;99.90;;;;;;6217375;23;20012;-86
2022/02/14 04:44:38;;;;;;;7.53;2.67;;;9.10;99.90;;;;;;6216712;23;20452;-85
2022/02/14 04:47:04;;;;;;;10.55;3.05;;;9.70;99.90;;;;;;6217171;23;20008;-85
2022/02/14 04:49:30;;;;;;;12.73;3.33;;;9.10;99.90;;;;;;6244244;23;20016;-86
2022/02/14 04:51:55;;;;;;;6.97;2.92;;;9.70;99.90;;;;;;6217578;23;20070;-86
2022/02/14 04:54:21;;;;;;;10.70;3.08;;;9.10;99.90;;;;;;6216653;23;20016;-85
2022/02/14 04:56:47;;;;;;;11.27;3.00;;;9.20;99.90;;;;;;6245084;23;20383;-86
2022/02/14 04:59:14;;;;;;;11.77;2.72;;;9.50;99.90;;;;;;6217680;23;20008;-85
2022/02/14 05:01:41;;;;;;;7.10;3.03;;;9.70;99.90;;;;;;6193003;23;20431;-85
2022/02/14 05:04:07;;;;;;;4.90;2.60;;;9.70;99.90;;;;;;6217339;23;20470;-85
2022/02/14 05:06:33;;;;;;;10.15;3.08;;;9.40;99.90;;;;;;6192393;23;20019;-85
2022/02/14 05:08:59;;;;;;;8.70;2.70;;;9.20;99.90;;;;;;6216338;23;20016;-86
2022/02/14 05:11:25;;;;;;;11.52;2.40;;;9.20;99.90;;;;;;6216699;23;20015;-85
2022/02/14 05:13:51;;;;;;;13.68;2.80;;;9.30;99.90;;;;;;6211475;23;20016;-85
2022/02/14 05:16:23;;;;;;;13.60;2.50;;;10.00;99.90;;;;;;6212308;23;20070;-85
2022/02/14 05:18:53;;;;;;;6.60;2.47;;;9.50;99.90;;;;;;6186684;23;20017;-86
2022/02/14 05:21:19;;;;;;;7.75;2.67;;;9.30;99.90;;;;;;6212092;23;20017;-85
2022/02/14 05:23:45;;;;;;;9.25;2.80;;;10.20;99.90;;;;;;6186169;23;20072;-85
2022/02/14 05:26:10;;;;;;;6.70;3.05;;;9.70;99.90;;;;;;6212255;23;20053;-85
2022/02/14 05:28:36;;;;;;;12.73;3.85;;;9.90;99.90;;;;;;6211876;23;20013;-87
2022/02/14 05:31:02;;;;;;;11.57;2.58;;;9.40;99.90;;;;;;6211342;23;20084;-86
2022/02/14 05:33:28;;;;;;;8.95;2.53;;;9.40;99.90;;;;;;6213157;23;20078;-84
2022/02/14 05:35:54;;;;;;;5.05;1.90;;;9.60;99.90;;;;;;6212078;23;20028;-85
2022/02/14 05:38:19;;;;;;;6.40;2.85;;;9.50;99.90;;;;;;6185925;23;20012;-85
2022/02/14 05:40:45;;;;;;;7.45;2.55;;;9.50;99.90;;;;;;6211887;23;20044;-85
2022/02/14 05:43:11;;;;;;;7.07;3.00;;;9.60;99.90;;;;;;6187280;23;20023;-85
2022/02/14 05:45:37;;;;;;;7.00;2.33;;;10.00;99.90;;;;;;6214468;23;20012;-86
2022/02/14 05:48:03;;;;;;;11.25;2.80;;;9.50;99.90;;;;;;6214401;23;20017;-85
2022/02/14 05:50:28;;;;;;;10.52;2.88;;;9.50;99.90;;;;;;6186821;23;20016;-84
2022/02/14 05:52:54;;;;;;;6.00;2.70;;;9.80;99.90;;;;;;6210607;23;20020;-85
2022/02/14 05:55:19;;;;;;;8.60;2.75;;;10.30;99.90;;;;;;6211974;23;20016;-85
2022/02/14 05:57:45;;;;;;;12.77;2.97;;;9.50;99.90;;;;;;6212180;23;20040;-85
2022/02/14 06:00:11;;;;;;;7.22;2.63;;;9.50;99.90;;;;;;6210718;23;20016;-86
2022/02/14 06:02:37;;;;;;;10.68;2.65;;;9.50;99.90;;;;;;6210992;23;20013;-85
2022/02/14 06:05:07;;;;;;;7.00;2.83;;;10.30;99.90;;;;;;6212865;23;20371;-86
2022/02/14 06:07:33;;;;;;;7.65;2.78;;;9.60;99.90;;;;;;6210911;23;20077;-86
2022/02/14 06:09:59;;;;;;;6.45;2.72;;;9.50;99.90;;;;;;6185133;23;20012;-85
2022/02/14 06:12:25;;;;;;;12.98;2.80;;;9.90;99.90;;;;;;6211291;23;20034;-86
2022/02/14 06:14:51;;;;;;;8.85;2.67;;;9.50;99.90;;;;;;6185917;23;20460;-85
2022/02/14 06:17:16;;;;;;;8.45;2.47;;;10.00;99.90;;;;;;6213013;23;20013;-85
2022/02/14 06:19:42;;;;;;;7.10;2.55;;;9.60;99.90;;;;;;6212819;23;20086;-86
2022/02/14 06:22:08;;;;;;;7.60;2.72;;;9.70;99.90;;;;;;6212149;23;20023;-85
2022/02/14 06:24:34;;;;;;;6.13;2.67;;;9.90;99.90;;;;;;6212295;23;20627;-85
2022/02/14 06:26:59;;;;;;;10.68;2.92;;;9.60;99.90;;;;;;6213248;23;20110;-85
2022/02/14 06:29:25;;;;;;;10.27;2.55;;;10.10;99.90;;;;;;6212538;23;20009;-85
2022/02/14 06:31:51;;;;;;;12.32;2.95;;;9.60;99.90;;;;;;6188231;23;20070;-87
2022/02/14 06:34:17;;;;;;;8.32;2.60;;;9.80;99.90;;;;;;6213208;23;20095;-85
2022/02/14 06:36:42;;;;;;;10.75;2.53;;;10.10;99.90;;;;;;6213656;23;20044;-86
2022/02/14 06:39:09;;;;;;;9.20;2.70;;;9.90;99.90;;;;;;6212709;23;20407;-84
2022/02/14 06:41:35;;;;;;;11.05;2.65;;;9.50;99.90;;;;;;6213274;23;20337;-83
2022/02/14 06:44:00;;;;;;;9.05;2.33;;;9.80;99.90;;;;;;6212217;23;20021;-79
2022/02/14 06:46:26;;;;;;;9.40;2.78;;;10.10;99.90;;;;;;6188011;23;20016;-80
2022/02/14 06:48:52;;;;;;;10.65;2.80;;;9.60;99.90;;;;;;6186789;23;20039;-81
2022/02/14 06:51:18;;;;;;;8.68;2.40;;;9.40;99.90;;;;;;6163138;23;20078;-83
2022/02/14 06:53:45;;;;;;;9.60;2.28;;;9.70;99.90;;;;;;6211550;23;20056;-84
2022/02/14 06:56:11;;;;;;;6.78;2.25;;;9.80;99.90;;;;;;6213967;23;20333;-83
2022/02/14 06:58:38;;;;;;;8.73;2.80;;;9.90;99.90;;;;;;6211260;23;20012;-82
2022/02/14 07:01:07;;;;;;;9.20;2.10;;;10.20;99.90;;;;;;6211256;23;20131;-81
2022/02/14 07:03:35;;;;;;;8.63;2.33;;;9.70;99.90;;;;;;6213210;23;20016;-82
2022/02/14 07:06:00;;;;;;;13.30;2.28;;;10.00;99.90;;;;;;6211917;23;20424;-82
2022/02/14 07:08:26;;;;;;;8.45;2.42;;;10.20;99.90;;;;;;6210911;23;20008;-83
2022/02/14 07:10:52;;;;;;;6.15;2.60;;;9.90;99.90;;;;;;6212164;23;20044;-83
2022/02/14 07:13:18;;;;;;;7.68;2.63;;;9.80;99.90;;;;;;6186918;23;20020;-83
2022/02/14 07:15:44;;;;;;;6.80;2.33;;;9.80;99.90;;;;;;6211262;23;20017;-82
2022/02/14 07:18:12;;;;;;;8.52;2.20;;;9.90;99.90;;;;;;6187245;23;20032;-83
2022/02/14 07:20:38;;;;;;;13.50;2.08;;;9.80;99.90;;;;;;6213101;23;20020;-82
2022/02/14 07:23:05;;;;;;;7.50;2.30;;;9.90;99.90;;;;;;6213516;23;20021;-82
2022/02/14 07:25:31;;;;;;;5.05;2.42;;;9.90;99.90;;;;;;6188245;23;20020;-82
2022/02/14 07:27:56;;;;;;;3.55;1.95;;;10.00;99.90;;;;;;6214259;23;20131;-83
2022/02/14 07:30:22;;;;;;;3.75;1.85;;;10.00;99.90;;;;;;6213712;23;20009;-83
2022/02/14 07:32:48;;;;;;;5.43;2.00;;;10.00;99.90;;;;;;6211902;23;20016;-82
2022/02/14 07:35:14;;;;;;;8.60;2.13;;;10.10;99.90;;;;;;6213550;23;20012;-81
2022/02/14 07:37:42;;;;;;;18.98;2.40;;;10.30;99.90;;;;;;6211450;23;20067;-83
2022/02/14 07:40:13;;;;;;;7.80;2.20;;;10.50;99.90;;;;;;6190033;23;20027;-84
2022/02/14 07:42:39;;;;;;;6.15;2.17;;;10.00;99.90;;;;;;6190074;23;20023;-83
2022/02/14 07:45:06;;;;;;;5.10;1.83;;;10.40;99.90;;;;;;6216387;23;20410;-84
2022/02/14 07:47:32;;;;;;;4.03;1.90;;;10.00;99.90;;;;;;6214764;23;20087;-80
2022/02/14 07:49:58;;;;;;;9.35;2.50;;;10.00;99.90;;;;;;6162895;23;20027;-78
2022/02/14 07:52:24;;;;;;;6.35;2.20;;;10.10;99.90;;;;;;6212331;23;20024;-78
2022/02/14 07:54:51;;;;;;;7.95;2.33;;;10.00;99.90;;;;;;6187489;23;20399;-80
2022/02/14 07:57:17;;;;;;;5.53;2.22;;;10.00;99.90;;;;;;6212100;23;20465;-81
2022/02/14 07:59:43;;;;;;;6.47;2.25;;;10.00;99.90;;;;;;6186906;23;20019;-80
2022/02/14 08:02:09;;;;;;;11.13;2.00;;;9.90;99.90;;;;;;6185058;23;20336;-77
2022/02/14 08:04:34;;;;;;;5.57;1.88;;;10.00;99.90;;;;;;6211665;23;20016;-80
2022/02/14 08:07:04;;;;;;;6.10;2.28;;;10.00;99.90;;;;;;6187060;23;20024;-81
2022/02/14 08:09:30;;;;;;;8.45;1.85;;;9.90;99.90;;;;;;6186197;23;20337;-78
2022/02/14 08:11:56;;;;;;;6.32;2.25;;;10.00;99.90;;;;;;6223691;22;20056;-77
2022/02/14 08:14:22;;;;;;;8.98;2.45;;;9.90;99.90;;;;;;6243829;22;20008;-79
2022/02/14 08:16:48;;;;;;;3.85;2.03;;;10.00;99.90;;;;;;6219765;23;20020;-78
2022/02/14 08:19:13;;;;;;;8.25;2.30;;;10.00;99.90;;;;;;6245103;23;20019;-77
2022/02/14 08:21:39;;;;;;;7.40;2.03;;;10.00;99.90;;;;;;6220051;23;20054;-77
2022/02/14 08:24:05;;;;;;;3.78;1.90;;;9.90;99.90;;;;;;6243150;23;20030;-79
2022/02/14 08:26:33;;;;;;;11.60;2.83;;;9.90;99.90;;;;;;6243507;23;20004;-78
2022/02/14 08:28:59;;;;;;;5.68;2.20;;;10.00;99.90;;;;;;6202845;23;20027;-78
2022/02/14 08:31:25;;;;;;;5.68;2.08;;;10.10;99.90;;;;;;6191915;23;20020;-77
2022/02/14 08:33:50;;;;;;;8.73;2.30;;;9.90;99.90;;;;;;6217036;23;20008;-78
2022/02/14 08:36:18;;;;;;;8.07;2.53;;;9.90;99.90;;;;;;6191817;23;20070;-80
2022/02/14 08:38:44;;;;;;;7.00;2.05;;;10.00;99.90;;;;;;6165882;23;20027;-79
2022/02/14 08:41:09;;;;;;;5.68;2.03;;;10.00;99.90;;;;;;6216708;23;20027;-80
2022/02/14 08:43:35;;;;;;;7.30;2.50;;;10.00;99.90;;;;;;6192582;23;20014;-81
2022/02/14 08:46:01;;;;;;;6.93;2.10;;;10.00;99.90;;;;;;6215114;23;20470;-81
2022/02/14 08:48:30;;;;;;;8.10;2.08;;;10.00;99.90;;;;;;6214548;23;20020;-82
2022/02/14 08:50:56;;;;;;;8.07;2.42;;;10.00;99.90;;;;;;6215840;23;20019;-78
2022/02/14 08:53:23;;;;;;;9.25;2.53;;;9.90;99.90;;;;;;6189487;23;20126;-78
2022/02/14 08:55:49;;;;;;;6.75;2.17;;;9.90;99.90;;;;;;6216739;23;20044;-79
2022/02/14 08:58:14;;;;;;;10.05;2.63;;;9.70;99.90;;;;;;6216395;23;20336;-79
2022/02/14 09:00:40;;;;;;;10.50;2.80;;;9.50;99.90;;;;;;6216056;23;20013;-79
2022/02/14 09:03:06;;;;;;;9.20;2.28;;;9.40;99.90;;;;;;6215638;23;20099;-78
2022/02/14 09:05:32;;;;;;;5.45;2.70;;;9.20;99.90;;;;;;6216569;23;20091;-78
2022/02/14 09:07:58;;;;;;;6.03;2.65;;;9.10;99.90;;;;;;6214966;23;20020;-78
2022/02/14 09:10:24;;;;;;;5.90;2.70;;;8.90;99.90;;;;;;6216897;23;20016;-80
2022/02/14 09:12:50;;;;;;;7.15;3.10;;;8.90;99.90;;;;;;6191675;23;20089;-80
2022/02/14 09:15:16;;;;;;;7.32;3.08;;;8.80;99.90;;;;;;6190349;23;20040;-80
2022/02/14 09:17:42;;;;;;;7.68;3.08;;;8.80;99.90;;;;;;6215958;23;20344;-79
2022/02/14 09:20:09;;;;;;;8.02;3.72;;;8.90;99.90;;;;;;6216733;23;20447;-78
2022/02/14 09:22:35;;;;;;;4.90;3.00;;;8.80;99.90;;;;;;6215567;23;20039;-78
2022/02/14 09:25:00;;;;;;;5.88;3.40;;;8.70;99.90;;;;;;6214253;23;20020;-78
2022/02/14 09:27:26;;;;;;;7.72;3.30;;;8.80;99.90;;;;;;6191632;23;20008;-79
2022/02/14 09:29:52;;;;;;;8.13;3.53;;;8.70;99.90;;;;;;6216179;23;20106;-79
2022/02/14 09:32:20;;;;;;;7.35;3.70;;;8.70;99.90;;;;;;6217046;23;20016;-78
2022/02/14 09:34:46;;;;;;;9.82;3.67;;;8.70;99.90;;;;;;6215950;23;20448;-79
2022/02/14 09:37:12;;;;;;;4.75;3.30;;;8.70;99.90;;;;;;6215009;23;20051;-80
2022/02/14 09:39:38;;;;;;;10.90;3.90;;;8.80;99.90;;;;;;6214242;23;20321;-80
2022/02/14 09:42:05;;;;;;;7.50;3.92;;;9.00;99.90;;;;;;6191955;23;20097;-80
2022/02/14 09:44:34;;;;;;;6.20;2.92;;;8.80;99.90;;;;;;6166308;23;20012;-82
2022/02/14 09:47:11;;;;;;;7.75;2.97;;;8.90;99.90;;;;;;6214738;23;20015;-81
2022/02/14 09:49:43;;;;;;;7.60;2.58;;;8.80;99.90;;;;;;6185021;23;20294;-85
2022/02/14 09:52:11;;;;;;;6.65;2.35;;;8.80;99.90;;;;;;6190763;23;20482;-85
2022/02/14 09:58:55;;;;;;;9.13;2.63;;;8.70;99.90;;;;;;6036224;23;20142;-82
2022/02/14 10:01:33;;;;;;;6.35;2.72;;;8.30;99.90;;;;;;6016467;23;20019;-82
2022/02/14 10:25:41;;;;;;;6.20;2.13;;;9.20;99.90;;;;;;6249836;22;20052;-80
2022/02/14 10:28:16;;;;;;;9.27;2.50;;;9.50;99.90;;;;;;6215365;23;20016;-75
2022/02/14 10:31:03;;;;;;;10.25;2.13;;;9.60;99.90;;;;;;6215671;23;20047;-79
2022/02/14 10:33:51;;;;;;;10.50;1.90;;;9.60;99.90;;;;;;6215034;23;20371;-78
2022/02/14 10:36:32;;;;;;;7.97;1.80;;;9.60;99.90;;;;;;6214986;23;20040;-80
2022/02/14 10:39:05;;;;;;;9.98;1.98;;;9.60;99.90;;;;;;6239545;23;20039;-79
2022/02/14 10:41:31;;;;;;;8.18;1.50;;;9.60;99.90;;;;;;6241536;23;20042;-79
2022/02/14 10:44:07;;;;;;;3.78;1.33;;;9.60;99.90;;;;;;6216686;23;20091;-79
2022/02/14 10:46:33;;;;;;;7.43;1.60;;;9.60;99.90;;;;;;6214696;23;20012;-80
2022/02/14 10:49:05;;;;;;;4.05;1.13;;;9.70;99.90;;;;;;6243053;23;20020;-79
2022/02/14 10:51:31;;;;;;;6.35;1.40;;;9.70;99.90;;;;;;6242972;22;20016;-79
2022/02/14 10:53:57;;;;;;;6.10;1.60;;;9.80;99.90;;;;;;6240548;23;20019;-79
2022/02/14 10:56:24;;;;;;;3.45;1.25;;;9.80;99.90;;;;;;6241552;23;20016;-80
2022/02/14 10:59:17;;;;;;;4.15;1.52;;;9.90;99.90;;;;;;6241148;23;20394;-80
2022/02/14 11:01:43;;;;;;;5.55;1.60;;;9.90;99.90;;;;;;6215154;23;20019;-80
2022/02/14 11:04:09;;;;;;;3.88;1.55;;;10.00;99.90;;;;;;6190568;23;20432;-79
2022/02/14 11:14:03;;;;;;;;;;;;;;;;;;;;;
2022/02/14 11:17:03;;;;;;;5.07;2.55;;;9.50;99.90;;;;;;6117424;23;20009;-80
2022/02/14 11:27:18;;;;;;;7.35;2.30;;;9.80;99.90;;;;;;5903183;24;20506;-80
2022/02/14 11:40:42;;;;;;;9.95;2.35;;;10.00;99.90;;;;;;5741803;24;20330;-80
2022/02/14 11:43:24;;;;;;;7.53;2.38;;;10.00;99.90;;;;;;5762865;24;20737;-79
2022/02/14 11:46:09;;;;;;;6.38;2.13;;;10.10;99.90;;;;;;5763686;24;20007;-79
2022/02/14 11:48:36;;;;;;;6.07;2.33;;;10.10;99.90;;;;;;5763094;24;20011;-79
2022/02/14 11:51:11;;;;;;;7.50;2.42;;;10.00;99.90;;;;;;5761033;24;20022;-80
2022/02/14 11:53:42;;;;;;;6.20;2.92;;;10.00;99.90;;;;;;5744585;24;20040;-80
2022/02/14 11:56:22;;;;;;;8.27;2.60;;;10.10;99.90;;;;;;5745751;24;20015;-79
2022/02/14 11:59:15;;;;;;;4.47;1.90;;;10.10;99.90;;;;;;5767924;24;20017;-79
2022/02/14 12:01:50;;;;;;;8.48;2.00;;;10.10;99.90;;;;;;5767027;24;20030;-80
2022/02/14 12:04:41;;;;;;;7.43;2.10;;;10.20;99.90;;;;;;5871361;24;20016;-79
2022/02/14 12:07:29;;;;;;;5.53;2.20;;;10.20;99.90;;;;;;5872002;24;20017;-77
2022/02/14 12:10:32;;;;;;;6.22;2.08;;;10.20;99.90;;;;;;5899766;24;20083;-83
2022/02/14 12:29:58;;;;;;;;;;;;;;;;;;;;;
2022/02/14 12:33:06;;;;;;;10.02;2.60;;;9.70;99.90;;;;;;5892286;24;20030;-80
2022/02/14 12:36:10;;;;;;;6.47;2.30;;;9.60;99.90;;;;;;5890502;24;20028;-79
2022/02/14 12:38:39;;;;;;;7.22;2.50;;;9.60;99.90;;;;;;5878743;24;20398;-79
2022/02/14 12:41:12;;;;;;;5.88;2.90;;;9.50;99.90;;;;;;5846351;24;20024;-79
2022/02/14 12:43:43;;;;;;;10.18;3.10;;;9.50;99.90;;;;;;5847533;24;20018;-79
2022/02/14 12:46:22;;;;;;;8.07;2.47;;;9.50;99.90;;;;;;5867996;24;20246;-79
2022/02/14 12:48:57;;;;;;;6.97;2.00;;;9.50;99.90;;;;;;5847380;24;20014;-82
2022/02/14 12:51:30;;;;;;;6.85;2.03;;;9.50;99.90;;;;;;5913060;24;20382;-80
2022/02/14 12:54:07;;;;;;;7.68;1.80;;;9.50;99.90;;;;;;5987110;23;20018;-80
2022/02/14 12:56:47;;;;;;;6.72;1.70;;;9.50;99.90;;;;;;6064292;23;20029;-80
2022/02/14 12:59:36;;;;;;;8.52;1.80;;;9.40;99.90;;;;;;6064234;23;20114;-82
2022/02/14 13:02:02;;;;;;;6.93;1.58;;;9.30;99.90;;;;;;6040459;23;20022;-82
2022/02/14 13:04:49;;;;;;;8.98;1.55;;;9.30;99.90;;;;;;6039405;23;20019;-81
2022/02/14 13:07:15;;;;;;;7.28;1.40;;;9.40;99.90;;;;;;6214334;23;20015;-82
2022/02/14 13:09:41;;;;;;;8.98;1.63;;;9.30;99.90;;;;;;6190746;23;20074;-79
2022/02/14 13:12:11;;;;;;;7.47;1.60;;;9.50;99.90;;;;;;6216939;23;20448;-81
2022/02/14 13:14:43;;;;;;;8.73;2.00;;;9.50;99.90;;;;;;6216966;23;20452;-82
2022/02/14 13:17:13;;;;;;;5.22;1.67;;;9.50;99.90;;;;;;6241681;23;20035;-80
2022/02/14 13:19:48;;;;;;;7.97;1.33;;;9.50;99.90;;;;;;6240091;23;20031;-80
2022/02/14 13:22:22;;;;;;;5.90;1.50;;;9.60;99.90;;;;;;6216773;23;20012;-81
2022/02/14 13:24:47;;;;;;;6.68;1.40;;;9.60;99.90;;;;;;6215874;23;20008;-82
2022/02/14 13:27:17;;;;;;;5.70;1.40;;;9.60;99.90;;;;;;6216893;23;20096;-81
2022/02/14 13:29:49;;;;;;;5.55;1.15;;;9.70;99.90;;;;;;6216829;23;20016;-81
2022/02/14 13:32:22;;;;;;;8.93;1.08;;;9.70;99.90;;;;;;6216165;23;20328;-81
2022/02/14 13:35:07;;;;;;;4.70;0.98;;;9.70;99.90;;;;;;6216638;23;20475;-81
2022/02/14 13:37:51;;;;;;;6.53;1.42;;;9.60;99.90;;;;;;6241043;23;20020;-83
2022/02/14 13:40:32;;;;;;;6.60;1.50;;;9.70;99.90;;;;;;6239632;23;20521;-80
2022/02/14 13:43:06;;;;;;;7.43;1.45;;;9.70;99.90;;;;;;6216394;23;20047;-83
2022/02/14 13:45:54;;;;;;;4.00;1.02;;;9.70;99.90;;;;;;6216229;23;20043;-83
2022/02/14 13:48:25;;;;;;;10.77;1.27;;;9.70;99.90;;;;;;6215661;23;20403;-82
2022/02/14 13:50:53;;;;;;;5.40;1.10;;;9.70;99.90;;;;;;6217004;23;20107;-81
2022/02/14 13:53:29;;;;;;;3.65;1.10;;;9.70;99.90;;;;;;6214968;23;20020;-82
2022/02/14 13:56:17;;;;;;;5.50;1.20;;;9.80;99.90;;;;;;6241544;23;20016;-80
2022/02/14 13:58:49;;;;;;;4.45;0.95;;;10.00;99.90;;;;;;6215716;23;20016;-82
2022/02/14 14:01:34;;;;;;;4.90;0.93;;;9.80;99.90;;;;;;6215912;23;20420;-81
2022/02/14 14:04:18;;;;;;;;;;;9.70;99.90;;;;;;6216191;23;20012;-81
2022/02/14 14:06:52;;;;;;;10.00;1.25;;;9.60;99.90;;;;;;6215601;23;19911;-84
2022/02/14 14:43:42;;;;;;;6.30;1.00;;;9.70;99.90;;;;;;6062575;23;20030;-81